Terminal Aerodrome Forecast
Issued by NWS

Current Version | Previous Version | Graphics & Text | Print | Product List | Glossary On
Versions: 1 2 3 4 5 6 7 8 9 10 11 12 13 14 15 16 17 18 19 20 21 22 23
621
FTUS41 KILN 210903 AAB
TAFLCK
TAF AMD
KLCK 210903Z 2109/2206 15004KT 3SM -DZ BR OVC025
      TEMPO 2109/2111 3/4SM BR BKN006 OVC020
     FM211100 19006KT P6SM OVC025
     FM212200 20005KT 4SM BR VCSH OVC008
     FM220200 17003KT P6SM VCSH OVC006=

USA.gov is the U.S. government's official web portal to all federal, state and local government web resources and services.